Isaac Baba

Olheiro-Chefe - Inter Allies
20 Fev 2028
Domingo
Processo

Personalidade

Adaptabilidade (9) Ambição (7) Controvérsia (1) Lealdade (9) Pressão (9) Profissionalismo (9) Espírito Esportivo (10) Temperamento (12)

Perfil

Estilo de Treinamento Democrático
Licença Nacional A
Determinação 4
Gestão de Pessoas 3
Motivação 3
Disciplina 2
Satisfação no Trabalho
100%
Fadiga
0%
Função Olheiro-Chefe
Salário 41.9K p/s
Contrato 14.03.2030

Desempenho

Comportamento Bom
Eficácia do Treinamento
26%
Desenvolvimento do Jogador
35%
Prevenção de Lesões
35%
Implementação Tática
30%

Eventos Recentes

Participou de uma reunião de recrutamento agora
Participou de uma reunião de recrutamento 7d atrás
Participou de uma reunião de recrutamento 7d atrás
Recomendou um alvo de transferência 7d atrás
Participou de uma reunião de recrutamento 14d atrás
Participou de uma reunião de recrutamento 14d atrás
Recomendou um alvo de transferência 14d atrás
Recomendou um alvo de transferência 21d atrás

Monitorando agora

103
Jogador Clube Status Habilidade Confiança Observado Última observação Último voto
Ernest Mwankurinah Aduana Stars Ativo 74 / 74 58% 1 17.01.2028 Aprovar
Joseph Wakaso Wa All Stars Ativo 119 / 119 42% 1 / 1m 29.12.2027 -
Gladson Essien BA All Stars Ativo 60 / 68 58% 1 30.08.2027 -
Sam Nombe Milton Keynes Dons Ativo 112 / 124 40% 2 05.07.2027 -
Simone Mazzocchi Cosenza Ativo 113 / 124 40% 5 05.07.2027 -
Louis Appéré Cambridge United Ativo 111 / 84 40% 2 21.06.2027 -
Kelvin Obeng Medeama Ativo 90 / 93 40% 2 21.06.2027 -
Lorenzo Di Stefano Torres Ativo 97 / 99 40% 5 14.06.2027 -
Emanuele Schimmenti Potenza Ativo 106 / 97 40% 1 30.05.2027 -
Ekain Orobengoa Real Sociedad Ativo 118 / 114 40% 5 29.05.2027 -
Yaw Mensah Hasaacas Ativo 95 / 94 40% 5 29.05.2027 -
Lamine Diakité Djoliba Ativo 102 / 104 40% 1 27.05.2027 -
Yeangel Montero Naxxar Lions Ativo 119 / 111 40% 7 26.05.2027 -
Lungelo Nguse AS Bakaridjan Ativo 78 / 88 40% 2 26.05.2027 -
Gladson Paintsil Wa All Stars Ativo 88 / 98 40% 4 24.05.2027 -
Jonathan Gyan Liberty Professionals Ativo 88 / 97 40% 4 23.05.2027 -
Lorenzo De Leo Renate Ativo 104 / 110 40% 2 22.05.2027 -
Justice Figuareido Chippa United Ativo 105 / 83 40% 4 20.05.2027 -
Bruno Gomes Valletta Ativo 110 / 111 40% 3 20.05.2027 -
Godbless Ayeke AS Korofina Ativo 72 / 80 40% 2 18.05.2027 -
John Yeboah Venezia Ativo 134 / 118 40% 1 18.05.2027 -
Dany Mota Monza Ativo 128 / 122 40% 2 17.05.2027 -
Jere Vrcić Birkirkara Ativo 104 / 95 40% 4 12.05.2027 -
Robert Mizo Ashanti Gold Ativo 101 / 113 40% 6 11.05.2027 -
Suleiman Mojereola FC Diarra Ativo 69 / 74 40% 4 09.05.2027 -
Job Ochieng Real Sociedad Ativo 124 / 95 40% 4 06.05.2027 -
Marco Tumminello Benevento Ativo 124 / 102 40% 1 06.05.2027 -
Robert Murić Floriana Ativo 116 / 97 40% 1 04.05.2027 -
Manuele Malotti Livorno Ativo 94 / 89 40% 1 01.05.2027 -
Lwanda Mbanjwa Maritzburg United Ativo 82 / 88 40% 2 30.04.2027 -
Franklin Sasere Birkirkara Ativo 98 / 85 40% 7 26.04.2027 -
Isaac Essien WAFA Ativo 104 / 94 40% 7 26.04.2027 -
Diamanka Senghor Mosta Ativo 91 / 76 40% 6 25.04.2027 -
Alessio Nepi Perugia Ativo 91 / 101 40% 2 25.04.2027 -
Luca Fabrizi Pianese Ativo 88 / 104 40% 1 23.04.2027 -
Camillo Tavernelli Arezzo Ativo 99 / 113 40% 1 21.04.2027 -
Marcelo Sliema Wanderers Ativo 100 / 80 40% 2 20.04.2027 -
Thomas Agyepong Great Olympics Ativo 87 / 103 40% 1 19.04.2027 -
Thomas Waddingham Portsmouth Ativo 103 / 123 40% 1 18.04.2027 -
Yusuff Adewale Afrique Foot Elite Ativo 69 / 90 40% 3 09.04.2027 -
Dean Erasmus Platinum Stars Ativo 81 / 83 40% 3 08.04.2027 -
Gabriel Costa Naxxar Lions Ativo 87 / 59 40% 1 03.04.2027 -
Mohammed Yahaya Great Olympics Ativo 88 / 85 40% 1 03.04.2027 -
Bismark Asante Ashanti Gold Ativo 103 / 83 40% 2 31.03.2027 -
Kwadwo Obeng Junior Heart of Lions Ativo 100 / 74 40% 3 29.03.2027 -
Selasie Bakai US Forces Armees Ativo 92 / 85 40% 1 28.03.2027 -
Kenan Dervišagić Floriana Ativo 97 / 88 40% 5 25.03.2027 -
Sibusiso Tshabalala Polokwane City Ativo 95 / 90 40% 3 24.03.2027 -
Ayom Majok Zabbar St. Patrick Ativo 100 / 77 40% 4 20.03.2027 -
Sanele Sikhosana US Bougouni Ativo 71 / 77 40% 1 18.03.2027 -
André Gzira United Ativo 57 / 90 40% 1 16.03.2027 -
Aaron Drinan Swindon Town Ativo 90 / 89 40% 1 15.03.2027 -
Fortune Bassey Djoliba Ativo 105 / 96 40% 2 01.03.2027 -
Kwame Opoku Asante Kotoko Ativo 94 / 95 40% 3 01.02.2027 -
Samuel Tetteh Ashanti Gold Ativo 111 / 100 40% 1 25.01.2027 -
Kyle Joseph Middlesbrough Ativo 102 / 123 40% 2 29.12.2026 -
Oto John ES Mostaganem Ativo 107 / 100 40% 2 29.12.2026 -
Francis Kahiro KCB Ativo 76 / 96 40% 1 28.12.2026 -
Macaulay Langstaff Millwall Ativo 104 / 125 40% 2 27.12.2026 -
Yago Santiago Racing Santander Ativo 113 / 111 40% 2 26.12.2026 -
Hassan Beja AFC Leopards Ativo 96 / 78 40% 1 25.12.2026 -
Andre Green AVS Ativo 97 / 119 40% 1 22.12.2026 -
Samuel Ayanrinde Kenya Police Ativo 82 / 96 40% 1 19.12.2026 -
Samuel Ssenyonjo AFC Leopards Ativo 64 / 80 40% 3 13.12.2026 -
Jovon Makama Norwich City Ativo 107 / 131 40% 1 08.12.2026 -
Peter Thiong'o Kakamega Homeboyz Ativo 96 / 81 40% 1 06.12.2026 -
Risen Albert University of Pretoria Ativo 76 / 96 40% 1 04.12.2026 -
Paul Mbong Floriana Ativo 115 / 108 40% 2 02.12.2026 -
Damir Céter Hamrun Spartans Ativo 104 / 99 40% 3 29.11.2026 -
Williams Furman Black Aces Ativo 64 / 69 40% 1 25.11.2026 -
Keagan Zungu Ajax Cape Town Ativo 101 / 106 40% 1 22.11.2026 -
Tyreece Simpson Maritzburg United Ativo 83 / 98 40% 1 13.11.2026 -
Josh Woods Accrington Stanley Ativo 77 / 101 40% 2 12.11.2026 -
Makabi Lilepo Kaizer Chiefs Ativo 107 / 121 40% 2 08.11.2026 -
James Kinyanjui AFC Leopards Ativo 102 / 84 40% 1 06.11.2026 -
Lewis McCann Fleetwood Town Ativo 87 / 98 40% 3 05.11.2026 -
Tyshick Mosengo Kenya Police Ativo 70 / 86 40% 1 05.11.2026 -
David Kalokoh Ajax Ativo 129 / 133 40% 1 31.10.2026 -
Jaze Kabia Grimsby Town Ativo 84 / 103 40% 2 24.10.2026 -
David Sakwa Bandari Ativo 96 / 83 40% 1 23.10.2026 -
Nyamawi Beja Bandari Ativo 85 / 88 40% 2 19.10.2026 -
Joseph Mwangi Kariobangi Sharks Ativo 98 / 74 40% 1 18.10.2026 -
Augustine Nwaorisa Enyimba Ativo 90 / 83 40% 1 17.10.2026 -
Luís Mota Zabbar St. Patrick Ativo 76 / 99 40% 2 11.10.2026 -
Fletcher Holman Swindon Town Ativo 83 / 84 40% 1 10.10.2026 -
Alfred Emoni Bandari Ativo 69 / 94 40% 1 05.10.2026 -
Philani Khumalo Golden Arrows Ativo 69 / 95 40% 1 01.10.2026 -
Benard Mundi Stade Malien Ativo 86 / 102 40% 1 30.09.2026 -
Lee Bonis Chesterfield Ativo 93 / 83 40% 3 28.09.2026 -
Alassana Jatta Notts County Ativo 99 / 88 40% 2 18.09.2026 -
Auwalu Ali Malam Kano Pillars Ativo 101 / 80 40% 1 12.09.2026 -
Patrick Otieno KCB Ativo 65 / 81 40% 1 11.09.2026 -
Klaidi Lolos Peterborough United Ativo 75 / 92 40% 1 11.09.2026 -
Umar Ada Nasarawa United Ativo 82 / 103 40% 1 10.09.2026 -
Shuaibu Ibrahim Wikki Tourists Ativo 99 / 98 40% 1 09.09.2026 -
James Emo Rangers International Ativo 80 / 98 40% 1 07.09.2026 -
Sadeeq Abubakar Wikki Tourists Ativo 84 / 73 40% 1 01.09.2026 -
Eliud Lokuwam Posta Rangers Ativo 70 / 87 40% 1 24.08.2026 -
Will Davies Fleetwood Town Ativo 72 / 90 40% 1 24.08.2026 -
Abubakar Adams Aduana Stars Ativo 59 / 71 48% 1 17.08.2026 -
Kofi Asmah Medeama Ativo 75 / 65 48% 1 03.08.2026 Observar
Joe Gelhardt Hull City Ativo 139 / 134 40% 1 01.08.2026 -
Jacques Ekomié Wrexham Ativo 120 / 116 40% 1 01.08.2026 -